Flight Track Log - Related Links

Times and Time Zones

All times are in EDT time to prevent confusion due to time zone crossing. See the N8800G flight status page for this flight to view local times or setup timezone preferences in your user account.

Time Position Orientation Groundspeed Altitude Reporting Facility
EDT Latitude Longitude Course Direction KTS MPH feet Rate Location/Type
Wed 05:21:58 PM 39.7000 -86.3000 180° South 135 155 1,400  Level Indianapolis TRACON
Wed 05:22:58 PM 39.6667 -86.3333 218° Southwest 156 180 3,300 1,750 Climbing Indianapolis TRACON
Wed 05:23:58 PM 39.6167 -86.3500 194° South 243 280 4,900 1,244 Climbing Indianapolis TRACON
Wed 05:25:00 PM 39.2551 -86.2622 176° South  Level FlightAware Approximate
Wed 05:25:13 PM 39.5408 -86.3433 176° South 253 291 6,100  Level Indianapolis Center
Wed 05:26:00 PM 39.1398 -86.2506 176° South  Level FlightAware Approximate
Wed 05:26:15 PM 39.4508 -86.3289 173° South 269 310 8,400  Level Indianapolis Center
Wed 05:27:00 PM 39.0242 -86.2500 180° South  Level FlightAware Approximate
Wed 05:27:17 PM 39.3717 -86.3178 174° South 283 326 10,700  Level Indianapolis Center
Wed 05:28:19 PM 39.2819 -86.3072 175° South 320 368 11,700 1,258 Climbing Indianapolis Center
Wed 05:29:21 PM 39.1858 -86.2972 175° South 344 396 13,300 1,403 Climbing Indianapolis Center
Wed 05:30:23 PM 39.0861 -86.2864 175° South 355 409 14,600 1,210 Climbing Indianapolis Center
Wed 05:31:25 PM 38.9603 -86.2722 175° South 375 432 15,800 1,210 Climbing Indianapolis Center
Wed 05:32:27 PM 38.8494 -86.2600 175° South 391 450 17,100 1,403 Climbing Indianapolis Center
Wed 05:33:29 PM 38.7550 -86.1919 151° Southeast 409 471 18,700 1,355 Climbing Indianapolis Center
Wed 05:34:31 PM 38.7225 -86.0497 106° East 417 480 19,900 1,113 Climbing Indianapolis Center
Wed 05:35:33 PM 38.6928 -85.9033 105° East 422 486 21,000 1,016 Climbing Indianapolis Center
Wed 05:36:35 PM 38.6636 -85.7633 105° East 426 490 22,000 1,161 Climbing Indianapolis Center
Wed 05:37:37 PM 38.6275 -85.5869 105° East 429 494 23,400 1,113 Climbing Indianapolis Center
Wed 05:38:39 PM 38.6017 -85.4603 105° East 425 489 24,300 968 Climbing Indianapolis Center
Wed 05:39:41 PM 38.5653 -85.2817 105° East 430 495 25,400 919 Climbing Indianapolis Center
Wed 05:40:43 PM 38.5331 -85.1283 105° East 431 496 26,200 726 Climbing Indianapolis Center
Wed 05:41:45 PM 38.5008 -84.9767 105° East 441 507 26,900 677 Climbing Indianapolis Center
Wed 05:42:47 PM 38.4689 -84.8242 105° East 444 511 27,600 677 Climbing Indianapolis Center
Wed 05:43:49 PM 38.4358 -84.6697 105° East 447 514 28,300 677 Climbing Indianapolis Center
Wed 05:44:51 PM 38.4025 -84.5156 105° East 449 517 29,000 726 Climbing Indianapolis Center
Wed 05:45:53 PM 38.3633 -84.3333 105° East 454 522 29,800 774 Climbing Indianapolis Center
Wed 05:46:55 PM 38.3297 -84.1797 106° East 451 519 30,600 581 Climbing Indianapolis Center
Wed 05:47:57 PM 38.2950 -84.0264 106° East 449 517 31,000 192 Climbing Indianapolis Center
Wed 05:49:00 PM 38.2600 -83.8686 106° East 458 527 31,000  Level Indianapolis Center
Wed 05:50:02 PM 38.2242 -83.7069 106° East 471 542 31,000  Level Indianapolis Center
Wed 05:51:04 PM 38.1881 -83.5436 106° East 476 548 31,000  Level Indianapolis Center
Wed 05:52:06 PM 38.1456 -83.3550 106° East 476 548 31,000  Level Indianapolis Center
Wed 05:53:08 PM 38.1081 -83.1953 107° East 472 543 31,000  Level Indianapolis Center
Wed 05:54:10 PM 38.0719 -83.0367 106° East 469 540 31,000  Level Indianapolis Center
Wed 05:55:12 PM 38.0342 -82.8761 107° East 471 542 31,000  Level Indianapolis Center
Wed 05:56:14 PM 37.9986 -82.7175 106° East 468 539 31,000  Level Indianapolis Center
Wed 05:57:16 PM 37.9614 -82.5581 106° East 468 539 31,000  Level Indianapolis Center
Wed 05:58:18 PM 37.9169 -82.3728 107° East 471 542 31,000  Level Indianapolis Center
Wed 05:59:20 PM 37.8808 -82.2247 107° East 448 516 31,000  Level Indianapolis Center
Wed 06:00:22 PM 37.8469 -82.0794 106° East 423 487 31,000 -290 Level Indianapolis Center
Wed 06:01:24 PM 37.8122 -81.9386 107° East 427 491 30,400 -774 Descending Indianapolis Center
Wed 06:02:26 PM 37.7756 -81.7908 107° East 437 503 29,400 -968 Descending Indianapolis Center
Wed 06:03:28 PM 37.7394 -81.6422 107° East 442 509 28,400 -1,065 Descending Indianapolis Center
Wed 06:04:30 PM 37.6964 -81.4708 108° East 439 505 27,200 -677 Descending Indianapolis Center
Wed 06:05:32 PM 37.6653 -81.3364 106° East 410 472 27,000 -97 Descending Indianapolis Center
Wed 06:06:34 PM 37.6311 -81.2025 108° East 411 473 27,000  Level Indianapolis Center
Wed 06:07:36 PM 37.5972 -81.0681 108° East 416 479 27,000  Level Indianapolis Center
Wed 06:08:38 PM 37.5561 -80.9031 107° East 423 487 27,000  Level Indianapolis Center
Wed 06:09:41 PM 37.5228 -80.7636 107° East 427 491 27,000  Level Indianapolis Center
Wed 06:10:43 PM 37.5092 -80.6258 97° East 410 472 27,000 -435 Level Indianapolis Center
Wed 06:11:45 PM 37.4906 -80.4628 98° East 404 465 26,100 -919 Descending Indianapolis Center
Wed 06:12:47 PM 37.4722 -80.3264 100° East 407 468 25,100 -968 Descending Indianapolis Center
Wed 06:13:49 PM 37.4542 -80.1925 100° East 402 463 24,100 -569 Descending Indianapolis Center
Wed 06:14:43 PM 37.3969 -80.0778 122° Southeast 381 438 24,000 -53 Descending Washington Center
Wed 06:15:43 PM 37.3272 -79.9850 133° Southeast 386 444 24,000  Level Washington Center
Wed 06:16:42 PM 37.2522 -79.8711 130° Southeast 410 472 24,000 -400 Level Washington Center
Wed 06:17:43 PM 37.1669 -79.7439 130° Southeast 427 491 23,200 -1,082 Descending Washington Center
Wed 06:18:44 PM 37.0933 -79.6356 130° Southeast 421 484 21,800 -1,091 Descending Washington Center
Wed 06:19:44 PM 37.0200 -79.5253 130° Southeast 416 479 21,000 -559 Descending Washington Center
Wed 06:20:42 PM 36.9542 -79.4283 130° Southeast 416 479 20,700 -508 Descending Washington Center
Wed 06:21:42 PM 36.8806 -79.3206 130° Southeast 416 479 20,000 -595 Descending Washington Center
Wed 06:22:43 PM 36.8067 -79.2108 130° Southeast 416 479 19,500 -992 Descending Washington Center
Wed 06:23:43 PM 36.7306 -79.0983 130° Southeast 400 460 18,000 -1,438 Descending Washington Center
Wed 06:24:44 PM 36.6539 -79.0119 138° Southeast 386 444 16,600 -1,565 Descending Washington Center
Wed 06:25:15 PM 36.6000 -78.9967 167° South 367 422 15,600 -1,964 Descending Washington Center
Wed 06:25:39 PM 36.5628 -78.9872 168° South 360 414 14,800 -2,188 Descending Washington Center
Wed 06:26:40 PM 36.4614 -78.9544 165° South 345 397 12,500 -1,820 Descending Washington Center
Wed 06:27:41 PM 36.3728 -78.9172 161° South 340 391 11,100 -1,488 Descending Washington Center
Wed 06:28:41 PM 36.3017 -78.8497 143° Southeast 318 366 9,500 -1,623 Descending Washington Center
Wed 06:29:43 PM 36.2322 -78.7903 145° Southeast 311 358 7,800 -1,659 Descending Washington Center
Wed 06:30:44 PM 36.1650 -78.7333 146° Southeast 298 343 6,100 -1,606 Descending Washington Center
Wed 06:31:50 PM 36.0914 -78.6689 145° Southeast 287 330 4,400 -1,412 Descending Washington Center
Wed 06:32:43 PM 36.0361 -78.6358 154° Southeast 263 303 3,300 -690 Descending Washington Center
Wed 06:33:43 PM 35.9872 -78.6622 204° Southwest 210 242 3,100 -200 Descending Washington Center

Login

Don't have an account? Register now (free) for customized features, flight alerts, and more!